Time;durP1;ratioP1;P1;durP2;ratioP2;P2;SDS_P1;SDS_P2;PMS_P1;PMS_P2;Temp;Humidity;BMP_temperature;BMP_pressure;BME280_temperature;BME280_humidity;BME280_pressure;Samples;Min_cycle;Max_cycle;Signal;HPM_P1;HPM_P2
2023/08/13 00:00:38;;;;;;;9.47;5.87;;;;;;;;;;5139167;27;20481;-67
2023/08/13 00:03:05;;;;;;;6.67;4.83;;;;;;;;;;5120899;27;20474;-67
2023/08/13 00:05:31;;;;;;;5.67;4.93;;;;;;;;;;5138876;27;20891;-67
2023/08/13 00:07:57;;;;;;;7.60;4.53;;;;;;;;;;5131240;27;20498;-67
2023/08/13 00:10:24;;;;;;;9.73;6.40;;;;;;;;;;5134684;27;20453;-67
2023/08/13 00:12:52;;;;;;;11.30;6.10;;;;;;;;;;5139253;27;20521;-67
2023/08/13 00:15:18;;;;;;;7.47;6.33;;;;;;;;;;5132446;27;20532;-66
2023/08/13 00:17:44;;;;;;;8.53;6.00;;;;;;;;;;5141980;27;20488;-67
2023/08/13 00:20:11;;;;;;;7.27;6.47;;;;;;;;;;5137827;27;20483;-67
2023/08/13 00:22:38;;;;;;;7.17;5.77;;;;;;;;;;5133591;27;20466;-67
2023/08/13 00:25:04;;;;;;;9.83;6.53;;;;;;;;;;5126223;27;20552;-67
2023/08/13 00:27:31;;;;;;;6.63;5.80;;;;;;;;;;5140585;27;20503;-67
2023/08/13 00:29:59;;;;;;;6.73;6.00;;;;;;;;;;5128450;27;20489;-66
2023/08/13 00:32:25;;;;;;;8.17;5.93;;;;;;;;;;5130062;27;20968;-66
2023/08/13 00:34:51;;;;;;;8.40;5.53;;;;;;;;;;5135394;27;20477;-66
2023/08/13 00:37:18;;;;;;;7.30;5.67;;;;;;;;;;5135226;27;20648;-67
2023/08/13 00:39:44;;;;;;;6.70;5.87;;;;;;;;;;5128893;27;20473;-67
2023/08/13 00:42:11;;;;;;;6.80;6.20;;;;;;;;;;5133305;27;20740;-67
2023/08/13 00:44:37;;;;;;;7.33;5.70;;;;;;;;;;5135808;27;21005;-67
2023/08/13 00:47:05;;;;;;;9.73;7.07;;;;;;;;;;5137991;27;20512;-67
2023/08/13 00:49:32;;;;;;;8.47;6.57;;;;;;;;;;5132463;27;20505;-65
2023/08/13 00:51:58;;;;;;;7.17;5.63;;;;;;;;;;5136523;27;20508;-67
2023/08/13 00:54:25;;;;;;;10.60;7.27;;;;;;;;;;5123332;27;20443;-67
2023/08/13 00:56:52;;;;;;;7.93;7.20;;;;;;;;;;5137010;27;20497;-66
2023/08/13 00:59:19;;;;;;;12.47;7.50;;;;;;;;;;5129731;27;20452;-66
2023/08/13 01:01:46;;;;;;;12.97;9.00;;;;;;;;;;5137022;27;20446;-67
2023/08/13 01:04:13;;;;;;;7.13;6.20;;;;;;;;;;5134137;27;20634;-67
2023/08/13 01:06:43;;;;;;;7.93;5.90;;;;;;;;;;5129243;27;20452;-67
2023/08/13 01:09:14;;;;;;;10.30;6.47;;;;;;;;;;5132784;27;20555;-67
2023/08/13 01:11:44;;;;;;;9.57;6.47;;;;;;;;;;5139311;27;20521;-64
2023/08/13 01:14:12;;;;;;;9.30;6.10;;;;;;;;;;5131721;27;20472;-67
2023/08/13 01:16:41;;;;;;;7.17;6.47;;;;;;;;;;5130408;27;20547;-67
2023/08/13 01:19:09;;;;;;;9.30;6.80;;;;;;;;;;5134062;27;20542;-66
2023/08/13 01:21:36;;;;;;;10.67;7.33;;;;;;;;;;5121765;27;20454;-66
2023/08/13 01:24:05;;;;;;;10.33;8.27;;;;;;;;;;5131604;27;20441;-67
2023/08/13 01:26:35;;;;;;;8.03;7.10;;;;;;;;;;5135828;27;20454;-66
2023/08/13 01:29:04;;;;;;;11.00;9.37;;;;;;;;;;5135729;27;20506;-66
2023/08/13 01:31:32;;;;;;;10.90;7.73;;;;;;;;;;5140267;27;20481;-67
2023/08/13 01:33:59;;;;;;;9.47;8.10;;;;;;;;;;5137063;27;20464;-67
2023/08/13 01:36:26;;;;;;;8.30;6.27;;;;;;;;;;5138595;27;20568;-66
2023/08/13 01:38:53;;;;;;;7.60;5.73;;;;;;;;;;5137387;27;20464;-67
2023/08/13 01:41:21;;;;;;;6.07;5.47;;;;;;;;;;5135630;27;20513;-67
2023/08/13 01:43:47;;;;;;;7.20;6.60;;;;;;;;;;5123998;27;20452;-67
2023/08/13 01:46:13;;;;;;;7.93;7.13;;;;;;;;;;5135499;27;20524;-66
2023/08/13 01:48:40;;;;;;;11.37;6.00;;;;;;;;;;5136279;27;20469;-67
2023/08/13 01:51:06;;;;;;;15.47;6.93;;;;;;;;;;5123007;27;20981;-67
2023/08/13 01:53:33;;;;;;;10.40;6.70;;;;;;;;;;5130010;27;20832;-66
2023/08/13 01:55:59;;;;;;;11.60;8.70;;;;;;;;;;5126868;27;20450;-66
2023/08/13 01:58:27;;;;;;;11.33;7.10;;;;;;;;;;5137295;27;20469;-67
2023/08/13 02:00:53;;;;;;;9.20;5.07;;;;;;;;;;5137686;27;20488;-66
2023/08/13 02:03:20;;;;;;;9.53;7.13;;;;;;;;;;5131888;27;20495;-67
2023/08/13 02:05:46;;;;;;;6.40;5.60;;;;;;;;;;5124573;27;20450;-66
2023/08/13 02:08:13;;;;;;;6.30;5.10;;;;;;;;;;5134210;27;20902;-66
2023/08/13 02:10:39;;;;;;;6.37;5.77;;;;;;;;;;5134729;27;20509;-66
2023/08/13 02:13:05;;;;;;;6.63;5.20;;;;;;;;;;5129650;27;20533;-67
2023/08/13 02:15:33;;;;;;;8.00;5.80;;;;;;;;;;5131625;27;20961;-67
2023/08/13 02:18:00;;;;;;;11.77;5.67;;;;;;;;;;5131749;27;20532;-64
2023/08/13 02:20:26;;;;;;;7.60;5.73;;;;;;;;;;5130398;27;20448;-66
2023/08/13 02:22:53;;;;;;;7.47;6.50;;;;;;;;;;5129209;27;20446;-66
2023/08/13 02:25:19;;;;;;;13.07;9.50;;;;;;;;;;5138078;27;20474;-66
2023/08/13 02:27:45;;;;;;;7.73;7.00;;;;;;;;;;5115591;27;20500;-67
2023/08/13 02:30:12;;;;;;;14.13;8.50;;;;;;;;;;5139169;27;20472;-66
2023/08/13 02:32:40;;;;;;;14.63;9.00;;;;;;;;;;5130747;27;20529;-67
2023/08/13 02:35:07;;;;;;;9.60;8.43;;;;;;;;;;5129339;27;20814;-66
2023/08/13 02:37:33;;;;;;;9.50;6.67;;;;;;;;;;5129928;27;20497;-66
2023/08/13 02:40:00;;;;;;;7.10;6.40;;;;;;;;;;5124449;27;20568;-67
2023/08/13 02:42:26;;;;;;;13.70;6.87;;;;;;;;;;5126565;27;20485;-66
2023/08/13 02:44:52;;;;;;;9.23;7.63;;;;;;;;;;5130325;27;20584;-66
2023/08/13 02:47:19;;;;;;;12.90;8.80;;;;;;;;;;5135473;27;20465;-65
2023/08/13 02:49:46;;;;;;;10.63;8.00;;;;;;;;;;5122924;27;20513;-66
2023/08/13 02:52:13;;;;;;;12.80;9.07;;;;;;;;;;5118671;27;20505;-66
2023/08/13 02:54:39;;;;;;;19.43;11.00;;;;;;;;;;5127146;27;20533;-66
2023/08/13 02:57:06;;;;;;;10.73;9.63;;;;;;;;;;5133879;27;20922;-65
2023/08/13 02:59:32;;;;;;;11.60;8.37;;;;;;;;;;5117175;27;20510;-65
2023/08/13 03:01:58;;;;;;;8.37;7.50;;;;;;;;;;5135425;27;20489;-66
2023/08/13 03:04:25;;;;;;;16.27;9.73;;;;;;;;;;5121321;27;20522;-67
2023/08/13 03:06:52;;;;;;;12.60;9.90;;;;;;;;;;5132438;27;20517;-66
2023/08/13 03:09:20;;;;;;;11.67;8.17;;;;;;;;;;5128553;27;20582;-65
2023/08/13 03:11:46;;;;;;;14.37;8.87;;;;;;;;;;5123816;27;20802;-67
2023/08/13 03:14:12;;;;;;;8.50;7.70;;;;;;;;;;5132572;27;20473;-66
2023/08/13 03:16:39;;;;;;;10.90;9.80;;;;;;;;;;5136459;27;20514;-67
2023/08/13 03:19:05;;;;;;;12.17;10.97;;;;;;;;;;5127850;27;20451;-67
2023/08/13 03:21:32;;;;;;;13.37;11.03;;;;;;;;;;5125991;27;21077;-67
2023/08/13 03:23:59;;;;;;;14.53;10.43;;;;;;;;;;5134822;27;20809;-66
2023/08/13 03:26:26;;;;;;;21.50;12.50;;;;;;;;;;5118639;28;20520;-67
2023/08/13 03:28:52;;;;;;;14.27;10.90;;;;;;;;;;5125729;28;20524;-67
2023/08/13 03:31:19;;;;;;;13.77;12.00;;;;;;;;;;5124013;28;20519;-67
2023/08/13 03:33:45;;;;;;;13.63;11.33;;;;;;;;;;5131212;28;20506;-65
2023/08/13 03:36:11;;;;;;;17.63;11.97;;;;;;;;;;5124421;28;20542;-65
2023/08/13 03:38:38;;;;;;;12.73;9.90;;;;;;;;;;5124527;28;20550;-66
2023/08/13 03:41:05;;;;;;;19.77;13.17;;;;;;;;;;5119560;28;20473;-66
2023/08/13 03:43:32;;;;;;;15.53;11.93;;;;;;;;;;5122867;28;21043;-66
2023/08/13 03:45:58;;;;;;;14.50;10.73;;;;;;;;;;5116493;28;20483;-65
2023/08/13 03:48:24;;;;;;;11.40;10.20;;;;;;;;;;5120914;28;20533;-65
2023/08/13 03:50:51;;;;;;;12.70;11.40;;;;;;;;;;5122548;28;20620;-65
2023/08/13 03:53:22;;;;;;;13.00;10.27;;;;;;;;;;5129397;28;20473;-66
2023/08/13 03:55:48;;;;;;;12.23;10.90;;;;;;;;;;5124290;28;20792;-66
2023/08/13 03:58:16;;;;;;;12.53;10.00;;;;;;;;;;5128892;28;20534;-67
2023/08/13 04:00:42;;;;;;;13.37;11.20;;;;;;;;;;5130084;28;20529;-65
2023/08/13 04:03:09;;;;;;;16.20;12.30;;;;;;;;;;5124718;28;20502;-66
2023/08/13 04:05:35;;;;;;;14.00;11.30;;;;;;;;;;5137605;28;20517;-66
2023/08/13 04:08:02;;;;;;;12.97;11.67;;;;;;;;;;5131029;28;20542;-66
2023/08/13 04:10:28;;;;;;;13.70;11.30;;;;;;;;;;5129475;28;20979;-66
2023/08/13 04:12:56;;;;;;;16.23;11.47;;;;;;;;;;5127985;28;20549;-66
2023/08/13 04:15:24;;;;;;;12.27;9.87;;;;;;;;;;5137693;28;20445;-66
2023/08/13 04:17:50;;;;;;;14.90;10.50;;;;;;;;;;5140633;27;20500;-66
2023/08/13 04:20:16;;;;;;;10.93;9.73;;;;;;;;;;5133285;27;20473;-66
2023/08/13 04:22:43;;;;;;;11.70;10.50;;;;;;;;;;5135637;27;20434;-66
2023/08/13 04:25:09;;;;;;;10.70;9.57;;;;;;;;;;5126302;27;20513;-66
2023/08/13 04:27:36;;;;;;;12.93;8.90;;;;;;;;;;5127530;27;20466;-66
2023/08/13 04:30:02;;;;;;;11.40;8.17;;;;;;;;;;5143013;27;20477;-66
2023/08/13 04:32:31;;;;;;;9.57;8.00;;;;;;;;;;5143504;27;20441;-66
2023/08/13 04:34:58;;;;;;;15.67;9.63;;;;;;;;;;5140591;27;20457;-66
2023/08/13 04:37:24;;;;;;;14.00;8.97;;;;;;;;;;5137527;27;20512;-66
2023/08/13 04:39:51;;;;;;;9.03;7.80;;;;;;;;;;5132316;27;20479;-66
2023/08/13 04:42:17;;;;;;;13.60;9.97;;;;;;;;;;5129758;27;20966;-66
2023/08/13 04:44:43;;;;;;;12.73;9.23;;;;;;;;;;5130280;27;20469;-66
2023/08/13 04:47:10;;;;;;;14.13;9.77;;;;;;;;;;5129264;27;20474;-65
2023/08/13 04:49:38;;;;;;;10.33;7.70;;;;;;;;;;5121090;27;20511;-66
2023/08/13 04:52:04;;;;;;;10.37;9.30;;;;;;;;;;5123992;27;20518;-66
2023/08/13 04:54:31;;;;;;;9.80;7.27;;;;;;;;;;5137068;27;20521;-66
2023/08/13 04:56:57;;;;;;;7.63;6.83;;;;;;;;;;5115482;27;20522;-67
2023/08/13 04:59:23;;;;;;;8.90;7.50;;;;;;;;;;5125468;27;20488;-65
2023/08/13 05:01:50;;;;;;;8.43;7.40;;;;;;;;;;5140199;27;20481;-66
2023/08/13 05:04:16;;;;;;;10.77;8.23;;;;;;;;;;5138870;27;21011;-66
2023/08/13 05:06:44;;;;;;;10.80;8.10;;;;;;;;;;5135307;27;20516;-66
2023/08/13 05:09:10;;;;;;;8.77;7.93;;;;;;;;;;5122546;27;21005;-66
2023/08/13 05:11:37;;;;;;;12.10;7.87;;;;;;;;;;5133291;27;20465;-64
2023/08/13 05:14:03;;;;;;;12.37;6.40;;;;;;;;;;5135346;27;20475;-67
2023/08/13 05:16:30;;;;;;;7.90;6.70;;;;;;;;;;5133947;27;20517;-66
2023/08/13 05:18:56;;;;;;;6.63;6.03;;;;;;;;;;5133061;27;20493;-67
2023/08/13 05:21:23;;;;;;;8.90;6.03;;;;;;;;;;5122681;27;20467;-67
2023/08/13 05:23:50;;;;;;;7.57;6.30;;;;;;;;;;5122087;27;20449;-68
2023/08/13 05:26:17;;;;;;;5.17;4.67;;;;;;;;;;5132168;27;20514;-66
2023/08/13 05:28:43;;;;;;;7.40;5.50;;;;;;;;;;5134139;27;20470;-67
2023/08/13 05:31:10;;;;;;;7.30;5.43;;;;;;;;;;5125759;27;20478;-66
2023/08/13 05:33:37;;;;;;;10.10;5.83;;;;;;;;;;5139328;27;20449;-66
2023/08/13 05:36:03;;;;;;;6.77;6.07;;;;;;;;;;5141597;27;20450;-67
2023/08/13 05:38:30;;;;;;;7.40;5.40;;;;;;;;;;5135013;27;20501;-67
2023/08/13 05:40:57;;;;;;;8.67;5.67;;;;;;;;;;5124761;27;20517;-67
2023/08/13 05:43:24;;;;;;;11.00;5.70;;;;;;;;;;5136761;27;21359;-67
2023/08/13 05:45:50;;;;;;;9.67;5.93;;;;;;;;;;5119374;27;20513;-66
2023/08/13 05:48:16;;;;;;;6.33;5.00;;;;;;;;;;5136526;27;20476;-67
2023/08/13 05:50:43;;;;;;;6.30;5.50;;;;;;;;;;5136643;27;20565;-67
2023/08/13 05:53:10;;;;;;;7.50;5.70;;;;;;;;;;5139007;27;20900;-67
2023/08/13 05:55:36;;;;;;;10.47;5.67;;;;;;;;;;5135792;27;20473;-68
2023/08/13 05:58:05;;;;;;;14.20;5.83;;;;;;;;;;5137001;27;20473;-68
2023/08/13 06:00:31;;;;;;;9.70;5.30;;;;;;;;;;5110916;27;20463;-68
2023/08/13 06:02:58;;;;;;;8.90;4.60;;;;;;;;;;5123539;27;20465;-68
2023/08/13 06:05:24;;;;;;;9.23;4.63;;;;;;;;;;5127269;27;20549;-67
2023/08/13 06:07:51;;;;;;;7.60;4.30;;;;;;;;;;5132143;27;20472;-67
2023/08/13 06:10:17;;;;;;;5.23;4.70;;;;;;;;;;5139370;27;20508;-67
2023/08/13 06:12:43;;;;;;;11.03;4.90;;;;;;;;;;5123559;27;20506;-67
2023/08/13 06:15:11;;;;;;;11.53;4.63;;;;;;;;;;5134435;27;20492;-68
2023/08/13 06:17:38;;;;;;;9.13;4.60;;;;;;;;;;5125005;27;20494;-67
2023/08/13 06:20:04;;;;;;;7.30;4.60;;;;;;;;;;5141224;27;20453;-67
2023/08/13 06:22:31;;;;;;;9.40;4.50;;;;;;;;;;5138355;27;20477;-67
2023/08/13 06:24:57;;;;;;;7.10;4.83;;;;;;;;;;5122481;27;20482;-67
2023/08/13 06:27:24;;;;;;;7.40;5.10;;;;;;;;;;5135669;27;20463;-67
2023/08/13 06:29:50;;;;;;;12.23;4.97;;;;;;;;;;5140777;27;20572;-67
2023/08/13 06:32:18;;;;;;;6.87;4.67;;;;;;;;;;5136453;27;20536;-68
2023/08/13 06:34:44;;;;;;;6.83;4.37;;;;;;;;;;5131596;27;20505;-68
2023/08/13 06:37:11;;;;;;;9.63;4.97;;;;;;;;;;5123032;27;20454;-68
2023/08/13 06:39:38;;;;;;;12.43;5.73;;;;;;;;;;5133438;27;20481;-67
2023/08/13 06:42:04;;;;;;;7.70;4.90;;;;;;;;;;5131807;27;20525;-67
2023/08/13 06:44:31;;;;;;;9.97;4.90;;;;;;;;;;5118750;27;20447;-68
2023/08/13 06:46:57;;;;;;;9.03;4.30;;;;;;;;;;5124571;27;20972;-68
2023/08/13 06:49:25;;;;;;;9.47;5.00;;;;;;;;;;5125728;27;20504;-68
2023/08/13 06:51:51;;;;;;;5.93;3.77;;;;;;;;;;5128766;27;20493;-68
2023/08/13 06:54:18;;;;;;;7.57;3.93;;;;;;;;;;5130401;27;20981;-68
2023/08/13 06:56:44;;;;;;;9.53;3.70;;;;;;;;;;5133833;27;20437;-68
2023/08/13 06:59:11;;;;;;;8.10;4.13;;;;;;;;;;5129096;27;20549;-68
2023/08/13 07:01:37;;;;;;;8.43;3.97;;;;;;;;;;5137551;27;20548;-68
2023/08/13 07:04:06;;;;;;;8.23;3.90;;;;;;;;;;5122769;27;20511;-68
2023/08/13 07:06:33;;;;;;;12.83;4.13;;;;;;;;;;5128948;27;20446;-69
2023/08/13 07:09:02;;;;;;;9.20;3.70;;;;;;;;;;5126843;27;20439;-68
2023/08/13 07:11:28;;;;;;;7.80;3.63;;;;;;;;;;5135736;27;20669;-68
2023/08/13 07:13:56;;;;;;;6.63;3.37;;;;;;;;;;5117805;27;20466;-67
2023/08/13 07:16:23;;;;;;;11.90;3.27;;;;;;;;;;5139472;27;20453;-68
2023/08/13 07:18:49;;;;;;;3.47;2.63;;;;;;;;;;5125243;27;20537;-68
2023/08/13 07:21:16;;;;;;;9.73;2.90;;;;;;;;;;5130982;27;20477;-69
2023/08/13 07:23:43;;;;;;;6.17;2.97;;;;;;;;;;5136213;27;20895;-67
2023/08/13 07:26:10;;;;;;;5.50;2.87;;;;;;;;;;5137187;27;20516;-68
2023/08/13 07:28:38;;;;;;;5.37;2.77;;;;;;;;;;5130966;27;20518;-68
2023/08/13 07:31:04;;;;;;;7.40;2.93;;;;;;;;;;5133026;28;20453;-69
2023/08/13 07:33:31;;;;;;;6.63;2.90;;;;;;;;;;5138364;28;21380;-68
2023/08/13 07:35:58;;;;;;;4.47;2.40;;;;;;;;;;5134978;28;20990;-69
2023/08/13 07:38:24;;;;;;;6.30;2.37;;;;;;;;;;5136365;28;20545;-68
2023/08/13 07:40:53;;;;;;;6.23;2.53;;;;;;;;;;5132794;28;20506;-69
2023/08/13 07:43:19;;;;;;;6.23;2.40;;;;;;;;;;5135661;28;20452;-69
2023/08/13 07:45:45;;;;;;;5.07;1.90;;;;;;;;;;5127814;28;20984;-68
2023/08/13 07:48:12;;;;;;;5.53;2.37;;;;;;;;;;5134918;28;20497;-69
2023/08/13 07:50:39;;;;;;;6.40;2.17;;;;;;;;;;5135800;28;20517;-69
2023/08/13 07:53:05;;;;;;;3.43;1.80;;;;;;;;;;5125360;27;20449;-68
2023/08/13 07:55:31;;;;;;;6.03;2.20;;;;;;;;;;5137972;27;20492;-68
2023/08/13 07:57:59;;;;;;;5.43;2.20;;;;;;;;;;5133701;27;20524;-68
2023/08/13 08:00:26;;;;;;;5.57;2.20;;;;;;;;;;5120958;27;20996;-69
2023/08/13 08:02:53;;;;;;;4.33;1.90;;;;;;;;;;5121461;28;20499;-69
2023/08/13 08:05:19;;;;;;;6.73;2.10;;;;;;;;;;5142008;27;20871;-69
2023/08/13 08:07:46;;;;;;;5.30;2.20;;;;;;;;;;5129695;27;20466;-70
2023/08/13 08:10:12;;;;;;;5.13;2.10;;;;;;;;;;5142990;27;20827;-69
2023/08/13 08:12:39;;;;;;;4.70;2.30;;;;;;;;;;5121035;27;20485;-69
2023/08/13 08:15:07;;;;;;;4.50;2.03;;;;;;;;;;5126602;27;20540;-69
2023/08/13 08:17:35;;;;;;;3.50;1.73;;;;;;;;;;5136557;27;20480;-69
2023/08/13 08:20:02;;;;;;;4.13;1.77;;;;;;;;;;5127126;27;20474;-69
2023/08/13 08:22:29;;;;;;;4.70;1.83;;;;;;;;;;5123748;27;20454;-69
2023/08/13 08:24:55;;;;;;;7.10;2.10;;;;;;;;;;5121156;27;20602;-68
2023/08/13 08:27:21;;;;;;;4.27;1.83;;;;;;;;;;5137697;27;20474;-69
2023/08/13 08:29:48;;;;;;;4.90;1.67;;;;;;;;;;5127763;27;20509;-69
2023/08/13 08:32:16;;;;;;;3.40;1.90;;;;;;;;;;5130591;27;20454;-69
2023/08/13 08:34:42;;;;;;;5.47;1.70;;;;;;;;;;5134377;27;21058;-69
2023/08/13 08:37:10;;;;;;;6.33;2.03;;;;;;;;;;5125487;27;20474;-69
2023/08/13 08:39:37;;;;;;;4.23;2.10;;;;;;;;;;5139660;27;20537;-69
2023/08/13 08:42:03;;;;;;;5.10;1.63;;;;;;;;;;5129078;27;20540;-69
2023/08/13 08:44:31;;;;;;;5.73;1.73;;;;;;;;;;5137269;27;21069;-69
2023/08/13 08:46:57;;;;;;;6.90;2.30;;;;;;;;;;5117270;27;20537;-69
2023/08/13 08:49:25;;;;;;;6.43;2.10;;;;;;;;;;5122254;27;20551;-69
2023/08/13 08:51:52;;;;;;;5.00;1.83;;;;;;;;;;5128438;27;20464;-69
2023/08/13 08:54:19;;;;;;;4.10;1.83;;;;;;;;;;5125930;27;20448;-69
2023/08/13 08:56:45;;;;;;;3.40;2.00;;;;;;;;;;5124259;27;20466;-68
2023/08/13 08:59:12;;;;;;;4.17;1.80;;;;;;;;;;5130807;27;20505;-68
2023/08/13 09:01:39;;;;;;;8.90;1.90;;;;;;;;;;5126092;27;20481;-69
2023/08/13 09:04:06;;;;;;;4.30;1.43;;;;;;;;;;5128559;27;21084;-69
2023/08/13 09:06:50;;;;;;;6.27;1.93;;;;;;;;;;5136691;27;20846;-69
2023/08/13 09:09:18;;;;;;;3.20;1.60;;;;;;;;;;5126567;27;20477;-69
2023/08/13 09:11:46;;;;;;;4.23;1.67;;;;;;;;;;5133934;27;20541;-69
2023/08/13 09:14:12;;;;;;;5.17;2.00;;;;;;;;;;5137599;27;20627;-69
2023/08/13 09:16:44;;;;;;;3.20;1.50;;;;;;;;;;5140137;27;20539;-69
2023/08/13 09:19:10;;;;;;;3.40;1.70;;;;;;;;;;5127382;27;20474;-69
2023/08/13 09:21:37;;;;;;;2.37;1.30;;;;;;;;;;5139820;27;20480;-69
2023/08/13 09:24:03;;;;;;;3.97;1.70;;;;;;;;;;5137739;27;20475;-69
2023/08/13 09:26:32;;;;;;;5.70;1.57;;;;;;;;;;5124714;27;20442;-69
2023/08/13 09:28:59;;;;;;;4.10;1.77;;;;;;;;;;5124511;27;20474;-69
2023/08/13 09:31:26;;;;;;;3.70;1.70;;;;;;;;;;5125946;27;20477;-69
2023/08/13 09:33:52;;;;;;;3.17;1.40;;;;;;;;;;5123194;27;20486;-69
2023/08/13 09:36:19;;;;;;;2.40;1.20;;;;;;;;;;5126422;27;20489;-69
2023/08/13 09:38:45;;;;;;;3.17;1.23;;;;;;;;;;5141146;27;20481;-69
2023/08/13 09:41:13;;;;;;;4.40;1.60;;;;;;;;;;5125974;27;20901;-69
2023/08/13 09:43:43;;;;;;;4.87;1.60;;;;;;;;;;5134770;27;20801;-69
2023/08/13 09:46:11;;;;;;;3.70;1.80;;;;;;;;;;5120749;27;20449;-69
2023/08/13 09:48:39;;;;;;;2.90;1.30;;;;;;;;;;5134867;27;20513;-68
2023/08/13 09:51:06;;;;;;;3.50;1.43;;;;;;;;;;5121043;27;20541;-69
2023/08/13 09:53:33;;;;;;;3.20;1.57;;;;;;;;;;5123754;27;20855;-69
2023/08/13 09:56:01;;;;;;;4.23;1.90;;;;;;;;;;5125606;27;20504;-67
2023/08/13 09:58:29;;;;;;;3.73;1.90;;;;;;;;;;5133985;27;20460;-70
2023/08/13 10:00:57;;;;;;;3.30;1.60;;;;;;;;;;5140540;27;20553;-69
2023/08/13 10:03:23;;;;;;;3.93;1.60;;;;;;;;;;5132469;27;20467;-69
2023/08/13 10:05:50;;;;;;;3.83;1.63;;;;;;;;;;5123663;27;20478;-70
2023/08/13 10:08:16;;;;;;;3.70;1.57;;;;;;;;;;5124455;27;20450;-69
2023/08/13 10:10:43;;;;;;;6.47;1.57;;;;;;;;;;5128627;27;20447;-68
2023/08/13 10:13:10;;;;;;;3.90;1.70;;;;;;;;;;5126495;27;20473;-68
2023/08/13 10:15:38;;;;;;;3.63;1.60;;;;;;;;;;5127946;27;20492;-68
2023/08/13 10:18:06;;;;;;;3.67;1.40;;;;;;;;;;5136169;27;20523;-68
2023/08/13 10:20:32;;;;;;;2.30;1.57;;;;;;;;;;5139358;27;20488;-68
2023/08/13 10:23:01;;;;;;;5.30;1.50;;;;;;;;;;5126950;27;20529;-68
2023/08/13 10:25:28;;;;;;;2.57;1.80;;;;;;;;;;5124014;27;20446;-69
2023/08/13 10:27:55;;;;;;;2.80;1.57;;;;;;;;;;5121975;27;20499;-68
2023/08/13 10:30:22;;;;;;;2.80;1.37;;;;;;;;;;5122740;27;21006;-68
2023/08/13 10:32:49;;;;;;;5.37;1.83;;;;;;;;;;5131055;27;20525;-69
2023/08/13 10:35:30;;;;;;;4.83;1.90;;;;;;;;;;5134081;27;20449;-68
2023/08/13 10:37:57;;;;;;;5.63;1.60;;;;;;;;;;5129063;27;20899;-69
2023/08/13 10:40:24;;;;;;;5.10;1.73;;;;;;;;;;5125406;27;20580;-69
2023/08/13 10:42:54;;;;;;;4.13;1.60;;;;;;;;;;5132715;27;20476;-67
2023/08/13 10:45:21;;;;;;;5.30;1.73;;;;;;;;;;5123430;27;20451;-69
2023/08/13 10:47:47;;;;;;;4.47;1.80;;;;;;;;;;5125940;27;20469;-69
2023/08/13 10:50:26;;;;;;;6.70;1.93;;;;;;;;;;5133955;27;20476;-69
2023/08/13 10:52:54;;;;;;;5.20;2.07;;;;;;;;;;5125367;27;20498;-69
2023/08/13 10:55:25;;;;;;;3.83;1.47;;;;;;;;;;5134514;27;20449;-68
2023/08/13 10:57:52;;;;;;;3.60;1.70;;;;;;;;;;5124930;27;20517;-67
2023/08/13 11:00:19;;;;;;;6.33;1.57;;;;;;;;;;5130885;27;20509;-69
2023/08/13 11:02:46;;;;;;;3.80;1.40;;;;;;;;;;5126902;27;20701;-69
2023/08/13 11:05:12;;;;;;;3.00;1.40;;;;;;;;;;5124726;27;20890;-69
2023/08/13 11:07:39;;;;;;;3.63;1.73;;;;;;;;;;5124533;27;20538;-66
2023/08/13 11:10:08;;;;;;;5.07;1.80;;;;;;;;;;5133522;27;20469;-69
2023/08/13 11:12:34;;;;;;;5.00;1.60;;;;;;;;;;5125442;27;20526;-69
2023/08/13 11:15:00;;;;;;;3.83;1.80;;;;;;;;;;5132077;27;20487;-68
2023/08/13 11:17:27;;;;;;;4.17;1.73;;;;;;;;;;5119739;27;20468;-68
2023/08/13 11:19:56;;;;;;;5.67;1.77;;;;;;;;;;5125101;27;20525;-69
2023/08/13 11:22:24;;;;;;;5.50;1.70;;;;;;;;;;5124468;27;20859;-68
2023/08/13 11:24:50;;;;;;;3.43;1.90;;;;;;;;;;5132761;27;20441;-68
2023/08/13 11:27:18;;;;;;;3.70;1.73;;;;;;;;;;5135904;27;20525;-69
2023/08/13 11:29:45;;;;;;;12.40;2.87;;;;;;;;;;5125577;27;20734;-66
2023/08/13 11:32:11;;;;;;;3.17;1.90;;;;;;;;;;5133854;28;20445;-69
2023/08/13 11:34:38;;;;;;;4.00;1.77;;;;;;;;;;5129029;28;20809;-69
2023/08/13 11:37:04;;;;;;;4.53;1.73;;;;;;;;;;5124667;28;20488;-69
2023/08/13 11:39:31;;;;;;;5.23;2.40;;;;;;;;;;5129525;28;20530;-70
2023/08/13 11:42:06;;;;;;;4.57;1.70;;;;;;;;;;5132053;28;20458;-69
2023/08/13 11:44:34;;;;;;;4.73;2.00;;;;;;;;;;5125730;28;20445;-69
2023/08/13 11:47:04;;;;;;;4.00;2.13;;;;;;;;;;5133002;28;20486;-68
2023/08/13 11:49:30;;;;;;;6.30;2.30;;;;;;;;;;5114504;28;20486;-69
2023/08/13 11:51:57;;;;;;;4.97;2.20;;;;;;;;;;5134045;28;20525;-69
2023/08/13 11:54:24;;;;;;;3.50;2.07;;;;;;;;;;5122015;28;20500;-67
2023/08/13 11:56:51;;;;;;;6.47;2.17;;;;;;;;;;5130656;28;20715;-69
2023/08/13 11:59:24;;;;;;;4.37;2.20;;;;;;;;;;5130970;28;20433;-69
2023/08/13 12:01:58;;;;;;;7.67;2.90;;;;;;;;;;5118974;28;20455;-68
2023/08/13 12:04:25;;;;;;;4.30;2.13;;;;;;;;;;5124971;28;20540;-68
2023/08/13 12:06:52;;;;;;;3.13;1.83;;;;;;;;;;5128184;28;20483;-68
2023/08/13 12:09:18;;;;;;;5.93;3.33;;;;;;;;;;5131852;28;20765;-68
2023/08/13 12:11:45;;;;;;;5.07;2.60;;;;;;;;;;5124836;28;20480;-69
2023/08/13 12:14:11;;;;;;;5.23;2.27;;;;;;;;;;5119588;28;20484;-68
2023/08/13 12:16:38;;;;;;;4.57;2.43;;;;;;;;;;5124637;28;20618;-68
2023/08/13 12:19:06;;;;;;;5.73;2.40;;;;;;;;;;5126362;28;20473;-69
2023/08/13 12:21:33;;;;;;;4.13;2.17;;;;;;;;;;5123883;28;20499;-68
2023/08/13 12:23:59;;;;;;;2.73;2.10;;;;;;;;;;5130437;28;20469;-69
2023/08/13 12:26:26;;;;;;;4.40;2.30;;;;;;;;;;5132952;28;20529;-69
2023/08/13 12:28:53;;;;;;;6.07;2.13;;;;;;;;;;5120074;28;20541;-67
2023/08/13 12:31:20;;;;;;;5.07;2.63;;;;;;;;;;5120913;28;20473;-68
2023/08/13 12:33:46;;;;;;;4.60;2.57;;;;;;;;;;5135206;28;20469;-69
2023/08/13 12:36:14;;;;;;;7.40;2.40;;;;;;;;;;5125493;28;20467;-68
2023/08/13 12:38:40;;;;;;;5.43;2.20;;;;;;;;;;5123770;27;20489;-68
2023/08/13 12:41:07;;;;;;;5.73;2.30;;;;;;;;;;5129963;27;20502;-68
2023/08/13 12:43:33;;;;;;;5.97;2.60;;;;;;;;;;5125282;27;20460;-69
2023/08/13 12:46:00;;;;;;;6.90;2.70;;;;;;;;;;5121192;27;20481;-69
2023/08/13 12:48:26;;;;;;;5.63;2.70;;;;;;;;;;5133979;27;20471;-69
2023/08/13 12:50:52;;;;;;;4.33;2.67;;;;;;;;;;5134792;27;20497;-68
2023/08/13 12:53:20;;;;;;;4.03;2.30;;;;;;;;;;5121668;27;20508;-66
2023/08/13 12:55:47;;;;;;;7.73;2.60;;;;;;;;;;5142527;27;20449;-69
2023/08/13 12:58:13;;;;;;;5.37;2.20;;;;;;;;;;5132652;27;20484;-69
2023/08/13 13:00:40;;;;;;;5.77;2.50;;;;;;;;;;5133686;27;20485;-65
2023/08/13 13:03:07;;;;;;;4.80;2.40;;;;;;;;;;5122471;27;20496;-68
2023/08/13 13:05:33;;;;;;;6.90;2.30;;;;;;;;;;5132014;27;20446;-68
2023/08/13 13:07:59;;;;;;;4.80;2.50;;;;;;;;;;5128101;27;20478;-68
2023/08/13 13:10:27;;;;;;;4.07;2.20;;;;;;;;;;5137931;27;20449;-68
2023/08/13 13:12:53;;;;;;;4.50;2.13;;;;;;;;;;5119816;27;20477;-68
2023/08/13 13:15:20;;;;;;;9.60;2.70;;;;;;;;;;5134322;27;20473;-68
2023/08/13 13:17:46;;;;;;;4.97;2.40;;;;;;;;;;5134955;27;20446;-68
2023/08/13 13:20:13;;;;;;;6.80;2.60;;;;;;;;;;5131048;27;20501;-68
2023/08/13 13:22:40;;;;;;;4.90;2.40;;;;;;;;;;5132158;27;20487;-71
2023/08/13 13:25:08;;;;;;;3.57;2.13;;;;;;;;;;5120743;27;20441;-68
2023/08/13 13:27:36;;;;;;;5.40;2.27;;;;;;;;;;5130157;27;20534;-68
2023/08/13 13:30:06;;;;;;;6.80;2.10;;;;;;;;;;5133618;27;20509;-69
2023/08/13 13:32:33;;;;;;;5.77;2.03;;;;;;;;;;5128529;27;20519;-69
2023/08/13 13:35:00;;;;;;;4.93;2.30;;;;;;;;;;5128876;27;20469;-68
2023/08/13 13:37:28;;;;;;;4.80;2.10;;;;;;;;;;5131520;27;20445;-69
2023/08/13 13:39:54;;;;;;;5.87;2.33;;;;;;;;;;5132139;27;20477;-68
2023/08/13 13:42:21;;;;;;;2.77;2.23;;;;;;;;;;5133298;27;20509;-69
2023/08/13 13:44:48;;;;;;;4.03;2.37;;;;;;;;;;5126062;27;20476;-69
2023/08/13 13:47:15;;;;;;;5.40;2.30;;;;;;;;;;5131312;27;20521;-69
2023/08/13 13:49:41;;;;;;;3.80;2.70;;;;;;;;;;5122584;27;20548;-70
2023/08/13 13:52:09;;;;;;;4.70;1.97;;;;;;;;;;5125787;27;20465;-70
2023/08/13 13:54:35;;;;;;;5.13;2.40;;;;;;;;;;5133914;27;20456;-67
2023/08/13 13:57:02;;;;;;;4.70;2.60;;;;;;;;;;5139308;27;20549;-66
2023/08/13 13:59:28;;;;;;;3.43;2.33;;;;;;;;;;5124791;27;20715;-69
2023/08/13 14:01:56;;;;;;;4.50;2.13;;;;;;;;;;5125147;27;20767;-70
2023/08/13 14:04:22;;;;;;;4.10;2.10;;;;;;;;;;5129427;27;20483;-69
2023/08/13 14:06:49;;;;;;;4.40;2.50;;;;;;;;;;5127336;27;20505;-69
2023/08/13 14:09:16;;;;;;;6.17;2.80;;;;;;;;;;5131098;27;20944;-69
2023/08/13 14:11:42;;;;;;;5.07;2.60;;;;;;;;;;5122957;27;20474;-69
2023/08/13 14:14:09;;;;;;;6.00;2.30;;;;;;;;;;5125526;27;20485;-70
2023/08/13 14:16:35;;;;;;;5.07;2.17;;;;;;;;;;5135458;27;20528;-69
2023/08/13 14:19:03;;;;;;;5.70;2.00;;;;;;;;;;5137300;27;20474;-68
2023/08/13 14:21:29;;;;;;;4.70;2.40;;;;;;;;;;5126494;27;20537;-70
2023/08/13 14:23:56;;;;;;;3.90;2.20;;;;;;;;;;5130058;27;20461;-69
2023/08/13 14:26:23;;;;;;;3.43;2.30;;;;;;;;;;5137123;27;20481;-67
2023/08/13 14:28:49;;;;;;;7.50;2.27;;;;;;;;;;5127985;27;20480;-70
2023/08/13 14:31:15;;;;;;;6.13;2.43;;;;;;;;;;5130851;27;20473;-69
2023/08/13 14:33:42;;;;;;;8.23;2.40;;;;;;;;;;5139747;27;20449;-68
2023/08/13 14:36:10;;;;;;;5.70;2.73;;;;;;;;;;5128670;27;20517;-69